Saluda, VA

4:40 PM EST on December 09, 2016 (GMT -0500)
Urbanna Creek Farms | | Change Station

Elev 79 ft 37.62 °N, 76.58 °W | Updated 4 seconds ago

Clear
Clear
37.2 °F
Feels Like 37 °F
N
0.0
Wind Variable Wind from West

Today
High -- | Low -- °F
--% Chance of Precip.
Yesterday
High -- | Low -- °F
Precip. -- in
Pressure 30.38 in
Visibility 10.0 miles
Clouds Clear
Windchill 37 °F
Dew Point 16 °F
Humidity 41%
Rainfall 0.00 in
Snow Depth Not available.
7:09 AM 4:47 PM
Waxing Gibbous, 77% visible
METAR KFYJ 092115Z AUTO 30007KT 10SM CLR 04/M12 A3038 RMK AO2 T00401121
Pressure 30.38 in
Visibility 10.0 miles
Clouds Clear
Windchill 37 °F
Dew Point 16 °F
Humidity 41%
Rainfall 0.00 in
Snow Depth Not available.
7:09 AM 4:47 PM
Waxing Gibbous, 77% visible
METAR KFYJ 092115Z AUTO 30007KT 10SM CLR 04/M12 A3038 RMK AO2 T00401121

10-Day Weather Forecast

Almanac

Astronomy

Dec. 09, 2016 Rise Set
Actual Time
Civil Twilight
Nautical Twilight
Astronomical Twilight
Moon
Length of Visible Light
Length of Day
Tomorrow will be .
, % of the Moon is Illuminated

Today's Extremes

State Highs State Lows

Community

WunderPhotos

Upload Photos

1,956,517 photos uploaded!

WunderBlog® & News

Nearby

Air Quality

  Air Quality AQ Index Pollutant
Not available.

Snow Depth

Station Depth Elevation

Earthquake Activity

City Distance Mag. Time & Date
Minimum magnitude displayed is 2.5.

Coastal Water Temperatures

Place Temperature

Stations

Nearby Weather Stations

Station Location Temp. Windchill Dew Point Humidity Wind Precip. Elev Updated Type
                   

Watches & Warnings

There are currently no watches in effect.